createdAt,value
2022-12-27T00:00:00.233Z,100060
2022-12-27T00:01:00.322Z,100060
2022-12-27T00:02:00.395Z,100070
2022-12-27T00:03:00.380Z,100070
2022-12-27T00:04:00.279Z,100070
2022-12-27T00:05:00.247Z,100070
2022-12-27T00:06:04.924Z,100070
2022-12-27T00:07:00.227Z,100070
2022-12-27T00:08:00.254Z,100070
2022-12-27T00:09:01.504Z,100070
2022-12-27T00:10:00.255Z,100080
2022-12-27T00:11:05.998Z,100080
2022-12-27T00:12:00.373Z,100100
2022-12-27T00:13:00.251Z,100100
2022-12-27T00:14:02.793Z,100100
2022-12-27T00:15:00.475Z,100110
2022-12-27T00:16:03.415Z,100100
2022-12-27T00:17:00.260Z,100100
2022-12-27T00:18:00.866Z,100090
2022-12-27T00:19:01.261Z,100090
2022-12-27T00:20:04.089Z,100090
2022-12-27T00:21:02.644Z,100100
2022-12-27T00:22:00.228Z,100100
2022-12-27T00:23:00.328Z,100100
2022-12-27T00:24:00.216Z,100100
2022-12-27T00:25:00.395Z,100110
2022-12-27T00:26:04.317Z,100100
2022-12-27T00:27:00.300Z,100110
2022-12-27T00:28:00.212Z,100110
2022-12-27T00:29:00.919Z,100110
2022-12-27T00:30:00.254Z,100110
2022-12-27T00:31:01.052Z,100110
2022-12-27T00:32:00.531Z,100110
2022-12-27T00:33:00.231Z,100110
2022-12-27T00:34:02.163Z,100120
2022-12-27T00:35:00.291Z,100120
2022-12-27T00:36:02.970Z,100120
2022-12-27T00:37:00.228Z,100130
2022-12-27T00:38:00.223Z,100130
2022-12-27T00:39:00.632Z,100130
2022-12-27T00:40:00.227Z,100130
2022-12-27T00:41:00.406Z,100130
2022-12-27T00:42:00.262Z,100130
2022-12-27T00:43:00.207Z,100130
2022-12-27T00:44:00.224Z,100130
2022-12-27T00:45:00.244Z,100140
2022-12-27T00:46:00.937Z,100130
2022-12-27T00:47:00.231Z,100130
2022-12-27T00:48:00.259Z,100140
2022-12-27T00:49:00.324Z,100130
2022-12-27T00:50:00.230Z,100140
2022-12-27T00:51:03.784Z,100140
2022-12-27T00:52:00.291Z,100120
2022-12-27T00:53:00.399Z,100130
2022-12-27T00:54:00.306Z,100140
2022-12-27T00:55:00.365Z,100150
2022-12-27T00:56:00.696Z,100150
2022-12-27T00:57:00.231Z,100150
2022-12-27T00:58:00.611Z,100160
2022-12-27T00:59:02.781Z,100160
2022-12-27T01:00:04.644Z,100150
2022-12-27T01:01:09.617Z,100160
2022-12-27T01:02:00.379Z,100160
2022-12-27T01:03:00.244Z,100160
2022-12-27T01:04:01.461Z,100160
2022-12-27T01:05:00.234Z,100170
2022-12-27T01:06:05.599Z,100170
2022-12-27T01:07:00.250Z,100170
2022-12-27T01:08:00.230Z,100170
2022-12-27T01:09:01.175Z,100170
2022-12-27T01:10:00.250Z,100170
2022-12-27T01:11:00.775Z,100170
2022-12-27T01:12:00.255Z,100180
2022-12-27T01:13:01.578Z,100180
2022-12-27T01:14:03.711Z,100180
2022-12-27T01:15:00.741Z,100180
2022-12-27T01:16:00.377Z,100180
2022-12-27T01:17:00.268Z,100180
2022-12-27T01:18:00.222Z,100180
2022-12-27T01:19:00.616Z,100180
2022-12-27T01:20:00.697Z,100180
2022-12-27T01:21:03.832Z,100180
2022-12-27T01:22:00.209Z,100190
2022-12-27T01:23:00.212Z,100190
2022-12-27T01:24:00.306Z,100190
2022-12-27T01:25:00.202Z,100200
2022-12-27T01:26:01.638Z,100190
2022-12-27T01:27:00.230Z,100190
2022-12-27T01:28:00.544Z,100200
2022-12-27T01:29:00.200Z,100200
2022-12-27T01:30:00.187Z,100200
2022-12-27T01:31:04.824Z,100200
2022-12-27T01:32:00.299Z,100200
2022-12-27T01:33:00.237Z,100210
2022-12-27T01:34:00.463Z,100200
2022-12-27T01:35:00.785Z,100200
2022-12-27T01:36:11.861Z,100210
2022-12-27T01:37:00.429Z,100210
2022-12-27T01:38:00.185Z,100210
2022-12-27T01:39:00.311Z,100210
2022-12-27T01:40:00.207Z,100220
2022-12-27T01:41:00.165Z,100220
2022-12-27T01:42:00.168Z,100220
2022-12-27T01:43:00.176Z,100230
2022-12-27T01:44:00.361Z,100230
2022-12-27T01:45:00.975Z,100230
2022-12-27T01:46:00.232Z,100230
2022-12-27T01:47:02.061Z,100230
2022-12-27T01:48:05.646Z,100230
2022-12-27T01:49:02.306Z,100230
2022-12-27T01:50:10.125Z,100230
2022-12-27T01:51:02.893Z,100230
2022-12-27T01:52:00.250Z,100230
2022-12-27T01:53:13.384Z,100230
2022-12-27T01:54:00.239Z,100230
2022-12-27T01:55:07.116Z,100230
2022-12-27T01:56:03.593Z,100230
2022-12-27T01:57:01.305Z,100230
2022-12-27T01:58:05.039Z,100230
2022-12-27T01:59:04.277Z,100230
2022-12-27T02:00:00.240Z,100230
2022-12-27T02:01:01.479Z,100240
2022-12-27T02:02:00.551Z,100230
2022-12-27T02:03:03.271Z,100230
2022-12-27T02:04:02.737Z,100240
2022-12-27T02:05:00.335Z,100240
2022-12-27T02:06:02.059Z,100240
2022-12-27T02:07:00.550Z,100240
2022-12-27T02:08:19.773Z,100240
2022-12-27T02:09:09.237Z,100240
2022-12-27T02:10:01.324Z,100240
2022-12-27T02:11:01.717Z,100250
2022-12-27T02:12:04.364Z,100250
2022-12-27T02:13:03.186Z,100260
2022-12-27T02:14:00.854Z,100260
2022-12-27T02:15:00.209Z,100270
2022-12-27T02:16:00.890Z,100270
2022-12-27T02:17:05.405Z,100270
2022-12-27T02:18:00.723Z,100280
2022-12-27T02:19:00.255Z,100280
2022-12-27T02:20:13.182Z,100280
2022-12-27T02:21:20.133Z,100290
2022-12-27T02:22:20.159Z,100290
2022-12-27T02:23:20.123Z,100310
2022-12-27T02:24:20.116Z,100300
2022-12-27T02:25:08.736Z,100300
2022-12-27T02:26:20.161Z,100310
2022-12-27T02:27:05.959Z,100320
2022-12-27T02:28:10.192Z,100330
2022-12-27T02:29:11.192Z,100330
2022-12-27T02:30:04.951Z,100330
2022-12-27T02:31:09.814Z,100330
2022-12-27T02:32:13.810Z,100350
2022-12-27T02:33:11.161Z,100350
2022-12-27T02:34:07.880Z,100350
2022-12-27T02:35:16.869Z,100350
2022-12-27T02:36:04.679Z,100360
2022-12-27T02:37:06.081Z,100350
2022-12-27T02:38:05.783Z,100360
2022-12-27T02:39:01.843Z,100360
2022-12-27T02:40:03.272Z,100360
2022-12-27T02:41:03.145Z,100350
2022-12-27T02:42:01.419Z,100350
2022-12-27T02:43:01.361Z,100360
2022-12-27T02:44:00.422Z,100360
2022-12-27T02:45:02.375Z,100360
2022-12-27T02:46:09.386Z,100360
2022-12-27T02:47:00.732Z,100360
2022-12-27T02:48:00.317Z,100360
2022-12-27T02:49:00.507Z,100360
2022-12-27T02:50:00.251Z,100360
2022-12-27T02:51:10.157Z,100370
2022-12-27T02:52:05.640Z,100370
2022-12-27T02:53:20.120Z,100370
2022-12-27T02:54:20.123Z,100380
2022-12-27T02:55:20.123Z,100370
2022-12-27T02:56:15.206Z,100380
2022-12-27T02:57:18.207Z,100380
2022-12-27T02:58:13.434Z,100380
2022-12-27T02:59:11.176Z,100390
2022-12-27T03:00:05.316Z,100380
2022-12-27T03:01:03.563Z,100370
2022-12-27T03:02:18.289Z,100370
2022-12-27T03:03:09.423Z,100360
2022-12-27T03:04:17.728Z,100360
2022-12-27T03:05:17.389Z,100360
2022-12-27T03:06:10.220Z,100370
2022-12-27T03:07:11.523Z,100370
2022-12-27T03:08:07.636Z,100370
2022-12-27T03:09:18.011Z,100380
2022-12-27T03:10:13.161Z,100380
2022-12-27T03:11:01.646Z,100390
2022-12-27T03:12:06.508Z,100380
2022-12-27T03:13:13.435Z,100380
2022-12-27T03:14:12.310Z,100380
2022-12-27T03:15:08.298Z,100390
2022-12-27T03:16:17.335Z,100380
2022-12-27T03:17:06.315Z,100380
2022-12-27T03:18:06.811Z,100380
2022-12-27T03:19:07.333Z,100390
2022-12-27T03:20:08.243Z,100380
2022-12-27T03:21:02.617Z,100390
2022-12-27T03:22:01.143Z,100390
2022-12-27T03:23:02.732Z,100390
2022-12-27T03:24:00.506Z,100390
2022-12-27T03:25:02.173Z,100390
2022-12-27T03:26:02.986Z,100390
2022-12-27T03:27:06.871Z,100390
2022-12-27T03:28:05.627Z,100400
2022-12-27T03:29:02.420Z,100390
2022-12-27T03:30:04.354Z,100400
2022-12-27T03:31:04.942Z,100410
2022-12-27T03:32:04.903Z,100410
2022-12-27T03:33:04.302Z,100420
2022-12-27T03:34:06.076Z,100420
2022-12-27T03:35:07.296Z,100420
2022-12-27T03:36:08.913Z,100420
2022-12-27T03:37:06.146Z,100420
2022-12-27T03:38:02.905Z,100430
2022-12-27T03:39:18.165Z,100430
2022-12-27T03:40:14.578Z,100430
2022-12-27T03:41:03.183Z,100440
2022-12-27T03:42:04.392Z,100440
2022-12-27T03:43:05.447Z,100440
2022-12-27T03:44:00.418Z,100450
2022-12-27T03:45:00.336Z,100450
2022-12-27T03:46:08.706Z,100450
2022-12-27T03:47:19.288Z,100450
2022-12-27T03:48:04.723Z,100450
2022-12-27T03:49:07.829Z,100450
2022-12-27T03:50:12.494Z,100450
2022-12-27T03:51:03.591Z,100450
2022-12-27T03:52:07.220Z,100450
2022-12-27T03:53:09.154Z,100460
2022-12-27T03:54:05.699Z,100460
2022-12-27T03:55:01.534Z,100460
2022-12-27T03:56:00.706Z,100460
2022-12-27T03:57:04.219Z,100460
2022-12-27T03:58:00.388Z,100470
2022-12-27T03:59:01.448Z,100470
2022-12-27T04:00:00.270Z,100470
2022-12-27T04:01:00.329Z,100470
2022-12-27T04:02:01.117Z,100470
2022-12-27T04:03:00.436Z,100470
2022-12-27T04:04:00.255Z,100480
2022-12-27T04:05:00.239Z,100480
2022-12-27T04:06:00.227Z,100480
2022-12-27T04:07:00.531Z,100490
2022-12-27T04:08:00.219Z,100480
2022-12-27T04:09:00.210Z,100490
2022-12-27T04:10:00.289Z,100490
2022-12-27T04:11:00.252Z,100490
2022-12-27T04:12:00.257Z,100490
2022-12-27T04:13:00.217Z,100490
2022-12-27T04:14:00.221Z,100500
2022-12-27T04:15:00.311Z,100490
2022-12-27T04:16:00.305Z,100500
2022-12-27T04:17:00.227Z,100500
2022-12-27T04:18:00.206Z,100500
2022-12-27T04:19:00.216Z,100500
2022-12-27T04:20:00.259Z,100500
2022-12-27T04:21:00.289Z,100510
2022-12-27T04:22:00.289Z,100510
2022-12-27T04:23:00.221Z,100500
2022-12-27T04:24:00.224Z,100510
2022-12-27T04:25:00.230Z,100510
2022-12-27T04:26:00.225Z,100500
2022-12-27T04:27:00.244Z,100510
2022-12-27T04:28:00.214Z,100510
2022-12-27T04:29:00.221Z,100520
2022-12-27T04:30:00.243Z,100520
2022-12-27T04:31:00.298Z,100530
2022-12-27T04:32:00.220Z,100530
2022-12-27T04:33:00.256Z,100530
2022-12-27T04:34:00.277Z,100530
2022-12-27T04:35:00.239Z,100530
2022-12-27T04:36:05.958Z,100530
2022-12-27T04:37:00.277Z,100540
2022-12-27T04:38:00.260Z,100540
2022-12-27T04:39:00.290Z,100540
2022-12-27T04:40:00.224Z,100540
2022-12-27T04:41:00.311Z,100540
2022-12-27T04:42:00.298Z,100540
2022-12-27T04:43:00.204Z,100550
2022-12-27T04:44:00.214Z,100550
2022-12-27T04:45:00.261Z,100550
2022-12-27T04:46:00.346Z,100560
2022-12-27T04:47:00.305Z,100560
2022-12-27T04:48:00.493Z,100560
2022-12-27T04:49:00.228Z,100560
2022-12-27T04:50:01.270Z,100560
2022-12-27T04:51:00.658Z,100570
2022-12-27T04:52:00.308Z,100570
2022-12-27T04:53:00.219Z,100570
2022-12-27T04:54:00.216Z,100570
2022-12-27T04:55:13.281Z,100580
2022-12-27T04:56:00.293Z,100580
2022-12-27T04:57:00.289Z,100580
2022-12-27T04:58:00.215Z,100580
2022-12-27T04:59:00.251Z,100580
2022-12-27T05:00:00.274Z,100580
2022-12-27T05:01:02.548Z,100580
2022-12-27T05:02:00.385Z,100580
2022-12-27T05:03:04.122Z,100580
2022-12-27T05:04:00.248Z,100590
2022-12-27T05:05:00.292Z,100590
2022-12-27T05:06:00.977Z,100590
2022-12-27T05:07:00.510Z,100590
2022-12-27T05:08:00.844Z,100590
2022-12-27T05:09:00.326Z,100590
2022-12-27T05:10:03.401Z,100590
2022-12-27T05:11:00.255Z,100590
2022-12-27T05:12:00.230Z,100600
2022-12-27T05:13:00.257Z,100600
2022-12-27T05:14:05.948Z,100600
2022-12-27T05:15:00.350Z,100600
2022-12-27T05:16:00.408Z,100600
2022-12-27T05:17:00.202Z,100600
2022-12-27T05:18:00.357Z,100600
2022-12-27T05:19:00.592Z,100600
2022-12-27T05:20:00.231Z,100600
2022-12-27T05:21:02.028Z,100610
2022-12-27T05:22:00.282Z,100610
2022-12-27T05:23:00.254Z,100610
2022-12-27T05:24:04.952Z,100610
2022-12-27T05:25:00.254Z,100610
2022-12-27T05:26:00.292Z,100620
2022-12-27T05:27:00.275Z,100620
2022-12-27T05:28:00.797Z,100620
2022-12-27T05:29:00.292Z,100620
2022-12-27T05:30:00.291Z,100620
2022-12-27T05:31:01.146Z,100630
2022-12-27T05:32:00.285Z,100630
2022-12-27T05:33:00.331Z,100630
2022-12-27T05:34:00.237Z,100630
2022-12-27T05:35:00.268Z,100640
2022-12-27T05:36:00.273Z,100640
2022-12-27T05:37:00.264Z,100640
2022-12-27T05:38:00.811Z,100640
2022-12-27T05:39:00.387Z,100640
2022-12-27T05:40:00.201Z,100640
2022-12-27T05:41:01.630Z,100640
2022-12-27T05:42:00.284Z,100640
2022-12-27T05:43:01.882Z,100640
2022-12-27T05:44:06.585Z,100640
2022-12-27T05:45:00.203Z,100650
2022-12-27T05:46:03.144Z,100650
2022-12-27T05:47:00.374Z,100650
2022-12-27T05:48:00.345Z,100650
2022-12-27T05:49:00.260Z,100650
2022-12-27T05:50:00.243Z,100650
2022-12-27T05:51:12.162Z,100650
2022-12-27T05:52:00.294Z,100650
2022-12-27T05:53:00.207Z,100650
2022-12-27T05:54:00.363Z,100650
2022-12-27T05:55:00.334Z,100650
2022-12-27T05:56:01.057Z,100660
2022-12-27T05:57:00.255Z,100650
2022-12-27T05:58:00.212Z,100650
2022-12-27T05:59:00.210Z,100650
2022-12-27T06:00:00.279Z,100650
2022-12-27T06:01:05.932Z,100650
2022-12-27T06:02:00.460Z,100650
2022-12-27T06:03:01.150Z,100650
2022-12-27T06:04:00.256Z,100650
2022-12-27T06:05:00.232Z,100660
2022-12-27T06:06:02.266Z,100660
2022-12-27T06:07:00.276Z,100660
2022-12-27T06:08:00.239Z,100660
2022-12-27T06:09:00.214Z,100660
2022-12-27T06:10:00.249Z,100660
2022-12-27T06:11:05.501Z,100660
2022-12-27T06:12:00.219Z,100660
2022-12-27T06:13:01.487Z,100660
2022-12-27T06:14:00.214Z,100670
2022-12-27T06:15:00.314Z,100670
2022-12-27T06:16:01.441Z,100670
2022-12-27T06:17:00.239Z,100670
2022-12-27T06:18:00.316Z,100680
2022-12-27T06:19:00.251Z,100680
2022-12-27T06:20:00.355Z,100680
2022-12-27T06:21:01.172Z,100680
2022-12-27T06:22:00.261Z,100680
2022-12-27T06:23:00.235Z,100680
2022-12-27T06:24:00.241Z,100680
2022-12-27T06:25:00.267Z,100670
2022-12-27T06:26:10.321Z,100680
2022-12-27T06:27:00.215Z,100680
2022-12-27T06:28:00.207Z,100680
2022-12-27T06:29:00.319Z,100680
2022-12-27T06:30:00.498Z,100690
2022-12-27T06:31:01.211Z,100690
2022-12-27T06:32:00.366Z,100690
2022-12-27T06:33:00.272Z,100690
2022-12-27T06:34:00.220Z,100690
2022-12-27T06:35:00.231Z,100690
2022-12-27T06:36:09.720Z,100690
2022-12-27T06:37:00.267Z,100690
2022-12-27T06:38:00.269Z,100690
2022-12-27T06:39:00.897Z,100690
2022-12-27T06:40:00.240Z,100700
2022-12-27T06:41:01.065Z,100690
2022-12-27T06:42:00.265Z,100690
2022-12-27T06:43:00.220Z,100690
2022-12-27T06:44:00.234Z,100690
2022-12-27T06:45:00.246Z,100690
2022-12-27T06:46:03.903Z,100690
2022-12-27T06:47:00.452Z,100700
2022-12-27T06:48:00.277Z,100700
2022-12-27T06:49:00.249Z,100710
2022-12-27T06:50:00.230Z,100710
2022-12-27T06:51:03.484Z,100700
2022-12-27T06:52:00.236Z,100710
2022-12-27T06:53:00.249Z,100710
2022-12-27T06:54:00.256Z,100710
2022-12-27T06:55:00.234Z,100720
2022-12-27T06:56:10.275Z,100720
2022-12-27T06:57:00.214Z,100720
2022-12-27T06:58:00.238Z,100720
2022-12-27T06:59:00.253Z,100710
2022-12-27T07:00:00.243Z,100720
2022-12-27T07:01:08.445Z,100720
2022-12-27T07:02:00.452Z,100720
2022-12-27T07:03:02.617Z,100730
2022-12-27T07:04:00.354Z,100730
2022-12-27T07:05:00.228Z,100730
2022-12-27T07:06:01.278Z,100740
2022-12-27T07:07:00.226Z,100740
2022-12-27T07:08:00.252Z,100740
2022-12-27T07:09:00.396Z,100740
2022-12-27T07:10:00.251Z,100740
2022-12-27T07:11:02.108Z,100740
2022-12-27T07:12:00.207Z,100740
2022-12-27T07:13:00.212Z,100740
2022-12-27T07:14:00.572Z,100740
2022-12-27T07:15:00.251Z,100740
2022-12-27T07:16:03.438Z,100740
2022-12-27T07:17:00.312Z,100740
2022-12-27T07:18:00.211Z,100740
2022-12-27T07:19:00.245Z,100740
2022-12-27T07:20:00.278Z,100740
2022-12-27T07:21:04.585Z,100740
2022-12-27T07:22:00.259Z,100740
2022-12-27T07:23:00.245Z,100750
2022-12-27T07:24:00.242Z,100750
2022-12-27T07:25:00.227Z,100750
2022-12-27T07:26:01.015Z,100750
2022-12-27T07:27:00.582Z,100750
2022-12-27T07:28:00.253Z,100760
2022-12-27T07:29:00.896Z,100750
2022-12-27T07:30:00.262Z,100760
2022-12-27T07:31:05.169Z,100760
2022-12-27T07:32:00.240Z,100760
2022-12-27T07:33:00.226Z,100760
2022-12-27T07:34:02.161Z,100760
2022-12-27T07:35:00.286Z,100770
2022-12-27T07:36:01.098Z,100770
2022-12-27T07:37:00.243Z,100770
2022-12-27T07:38:00.230Z,100770
2022-12-27T07:39:00.520Z,100770
2022-12-27T07:40:00.249Z,100770
2022-12-27T07:41:01.270Z,100770
2022-12-27T07:42:06.283Z,100770
2022-12-27T07:43:00.212Z,100770
2022-12-27T07:44:00.677Z,100770
2022-12-27T07:45:00.241Z,100770
2022-12-27T07:46:02.623Z,100780
2022-12-27T07:47:00.259Z,100780
2022-12-27T07:48:00.250Z,100780
2022-12-27T07:49:00.244Z,100790
2022-12-27T07:50:00.235Z,100780
2022-12-27T07:51:00.539Z,100780
2022-12-27T07:52:00.230Z,100780
2022-12-27T07:53:00.972Z,100780
2022-12-27T07:54:00.412Z,100790
2022-12-27T07:55:00.274Z,100790
2022-12-27T07:56:10.579Z,100780
2022-12-27T07:57:00.227Z,100790
2022-12-27T07:58:00.221Z,100790
2022-12-27T07:59:01.384Z,100790
2022-12-27T08:00:00.255Z,100790
2022-12-27T08:01:02.410Z,100790
2022-12-27T08:02:00.365Z,100790
2022-12-27T08:03:00.352Z,100800
2022-12-27T08:04:00.231Z,100790
2022-12-27T08:05:00.256Z,100790
2022-12-27T08:06:00.303Z,100790
2022-12-27T08:07:04.717Z,100790
2022-12-27T08:08:00.244Z,100800
2022-12-27T08:09:05.332Z,100800
2022-12-27T08:10:00.241Z,100800
2022-12-27T08:11:05.357Z,100800
2022-12-27T08:12:00.336Z,100800
2022-12-27T08:13:00.220Z,100800
2022-12-27T08:14:00.275Z,100800
2022-12-27T08:15:00.313Z,100800
2022-12-27T08:16:01.022Z,100800
2022-12-27T08:17:04.312Z,100790
2022-12-27T08:18:00.241Z,100790
2022-12-27T08:19:04.868Z,100790
2022-12-27T08:20:00.235Z,100790
2022-12-27T08:21:00.229Z,100790
2022-12-27T08:22:00.361Z,100790
2022-12-27T08:23:00.288Z,100790
2022-12-27T08:24:00.234Z,100790
2022-12-27T08:25:00.395Z,100790
2022-12-27T08:26:00.246Z,100790
2022-12-27T08:27:00.255Z,100780
2022-12-27T08:28:03.883Z,100790
2022-12-27T08:29:00.255Z,100790
2022-12-27T08:30:00.236Z,100780
2022-12-27T08:31:00.471Z,100780
2022-12-27T08:32:00.266Z,100790
2022-12-27T08:33:01.443Z,100790
2022-12-27T08:34:00.275Z,100790
2022-12-27T08:35:18.375Z,100790
2022-12-27T08:36:15.723Z,100790
2022-12-27T08:37:00.239Z,100790
2022-12-27T08:38:00.600Z,100790
2022-12-27T08:39:00.335Z,100780
2022-12-27T08:40:02.923Z,100790
2022-12-27T08:41:00.951Z,100790
2022-12-27T08:42:00.209Z,100790
2022-12-27T08:43:00.202Z,100790
2022-12-27T08:44:00.204Z,100800
2022-12-27T08:45:00.265Z,100800
2022-12-27T08:46:02.954Z,100800
2022-12-27T08:47:00.173Z,100800
2022-12-27T08:48:00.928Z,100810
2022-12-27T08:49:00.188Z,100810
2022-12-27T08:50:00.178Z,100810
2022-12-27T08:51:11.988Z,100810
2022-12-27T08:52:00.226Z,100820
2022-12-27T08:53:02.413Z,100820
2022-12-27T08:54:00.190Z,100810
2022-12-27T08:55:01.106Z,100810
2022-12-27T08:56:00.219Z,100810
2022-12-27T08:57:00.175Z,100810
2022-12-27T08:58:02.709Z,100810
2022-12-27T08:59:00.362Z,100810
2022-12-27T09:00:00.186Z,100810
2022-12-27T09:01:08.933Z,100820
2022-12-27T09:02:00.358Z,100810
2022-12-27T09:03:00.254Z,100810
2022-12-27T09:04:00.193Z,100810
2022-12-27T09:05:00.184Z,100810
2022-12-27T09:06:11.311Z,100820
2022-12-27T09:07:00.151Z,100810
2022-12-27T09:08:00.178Z,100820
2022-12-27T09:09:00.244Z,100820
2022-12-27T09:10:00.179Z,100820
2022-12-27T09:11:18.877Z,100810
2022-12-27T09:12:03.157Z,100820
2022-12-27T09:13:00.174Z,100820
2022-12-27T09:14:03.397Z,100820
2022-12-27T09:15:00.188Z,100820
2022-12-27T09:16:03.750Z,100820
2022-12-27T09:17:00.243Z,100820
2022-12-27T09:18:00.190Z,100820
2022-12-27T09:19:01.022Z,100820
2022-12-27T09:20:00.361Z,100820
2022-12-27T09:21:04.784Z,100820
2022-12-27T09:22:00.192Z,100820
2022-12-27T09:23:00.200Z,100820
2022-12-27T09:24:00.298Z,100820
2022-12-27T09:25:00.320Z,100820
2022-12-27T09:26:04.545Z,100820
2022-12-27T09:27:00.233Z,100820
2022-12-27T09:28:00.207Z,100820
2022-12-27T09:29:00.276Z,100830
2022-12-27T09:30:00.232Z,100820
2022-12-27T09:31:00.625Z,100830
2022-12-27T09:32:00.248Z,100830
2022-12-27T09:33:00.223Z,100830
2022-12-27T09:34:00.368Z,100830
2022-12-27T09:35:01.458Z,100830
2022-12-27T09:36:03.604Z,100830
2022-12-27T09:37:00.288Z,100830
2022-12-27T09:38:00.232Z,100820
2022-12-27T09:39:00.274Z,100830
2022-12-27T09:40:00.225Z,100820
2022-12-27T09:41:04.502Z,100830
2022-12-27T09:43:19.450Z,100830
2022-12-27T09:44:06.071Z,100820
2022-12-27T09:45:16.052Z,100820
2022-12-27T09:46:01.758Z,100820
2022-12-27T09:47:10.192Z,100820
2022-12-27T09:48:04.806Z,100830
2022-12-27T09:49:00.321Z,100830
2022-12-27T09:50:05.528Z,100820
2022-12-27T09:51:07.447Z,100830
2022-12-27T09:52:11.537Z,100830
2022-12-27T09:53:07.666Z,100830
2022-12-27T09:54:09.639Z,100830
2022-12-27T09:55:06.947Z,100840
2022-12-27T09:56:00.358Z,100830
2022-12-27T09:57:19.442Z,100840
2022-12-27T09:58:20.197Z,100840
2022-12-27T09:59:06.104Z,100830
2022-12-27T10:00:01.533Z,100830
2022-12-27T10:01:01.124Z,100830
2022-12-27T10:02:00.667Z,100840
2022-12-27T10:03:04.108Z,100840
2022-12-27T10:04:01.074Z,100840
2022-12-27T10:05:21.576Z,100840
2022-12-27T10:06:20.125Z,100840
2022-12-27T10:07:19.449Z,100830
2022-12-27T10:08:10.178Z,100840
2022-12-27T10:09:20.178Z,100840
2022-12-27T10:10:04.494Z,100840
2022-12-27T10:11:11.165Z,100830
2022-12-27T10:12:17.661Z,100840
2022-12-27T10:13:07.704Z,100840
2022-12-27T10:14:14.962Z,100840
2022-12-27T10:15:17.636Z,100840
2022-12-27T10:16:20.198Z,100840
2022-12-27T10:17:12.547Z,100830
2022-12-27T10:18:12.789Z,100840
2022-12-27T10:19:04.562Z,100840
2022-12-27T10:20:20.235Z,100840
2022-12-27T10:21:00.212Z,100830
2022-12-27T10:22:11.192Z,100840
2022-12-27T10:23:06.641Z,100840
2022-12-27T10:24:20.143Z,100840
2022-12-27T10:25:03.860Z,100840
2022-12-27T10:26:04.189Z,100830
2022-12-27T10:27:01.167Z,100830
2022-12-27T10:28:09.452Z,100830
2022-12-27T10:29:10.512Z,100840
2022-12-27T10:30:01.004Z,100830
2022-12-27T10:31:02.938Z,100830
2022-12-27T10:32:00.265Z,100830
2022-12-27T10:33:00.304Z,100830
2022-12-27T10:34:00.297Z,100830
2022-12-27T10:35:03.007Z,100830
2022-12-27T10:36:08.849Z,100830
2022-12-27T10:37:00.248Z,100840
2022-12-27T10:38:00.378Z,100840
2022-12-27T10:39:05.032Z,100840
2022-12-27T10:40:10.181Z,100830
2022-12-27T10:41:16.232Z,100840
2022-12-27T10:42:08.593Z,100840
2022-12-27T10:43:02.740Z,100840
2022-12-27T10:44:00.261Z,100840
2022-12-27T10:45:20.122Z,100840
2022-12-27T10:46:11.868Z,100830
2022-12-27T10:47:00.918Z,100830
2022-12-27T10:48:10.247Z,100850
2022-12-27T10:49:21.547Z,100830
2022-12-27T10:50:11.250Z,100840
2022-12-27T10:51:06.579Z,100830
2022-12-27T10:52:14.550Z,100840
2022-12-27T10:53:00.292Z,100840
2022-12-27T10:54:04.248Z,100840
2022-12-27T10:55:00.263Z,100840
2022-12-27T10:56:06.656Z,100840
2022-12-27T10:57:20.119Z,100840
2022-12-27T10:58:18.016Z,100840
2022-12-27T10:59:14.911Z,100830
2022-12-27T11:00:20.130Z,100830
2022-12-27T11:01:00.337Z,100830
2022-12-27T11:02:00.444Z,100830
2022-12-27T11:03:00.253Z,100830
2022-12-27T11:04:20.914Z,100830
2022-12-27T11:05:00.174Z,100820
2022-12-27T11:06:03.314Z,100830
2022-12-27T11:07:00.238Z,100830
2022-12-27T11:08:18.543Z,100830
2022-12-27T11:09:20.097Z,100820
2022-12-27T11:10:07.502Z,100820
2022-12-27T11:11:12.306Z,100830
2022-12-27T11:12:10.102Z,100820
2022-12-27T11:13:03.136Z,100820
2022-12-27T11:14:09.513Z,100820
2022-12-27T11:15:02.414Z,100810
2022-12-27T11:16:00.217Z,100820
2022-12-27T11:17:00.213Z,100830
2022-12-27T11:18:10.612Z,100830
2022-12-27T11:19:02.104Z,100820
2022-12-27T11:20:10.746Z,100810
2022-12-27T11:21:00.643Z,100820
2022-12-27T11:22:04.542Z,100820
2022-12-27T11:23:07.458Z,100820
2022-12-27T11:24:01.601Z,100830
2022-12-27T11:25:00.202Z,100820
2022-12-27T11:26:04.065Z,100820
2022-12-27T11:27:00.572Z,100820
2022-12-27T11:28:03.689Z,100830
2022-12-27T11:29:01.299Z,100820
2022-12-27T11:30:00.336Z,100830
2022-12-27T11:31:04.407Z,100830
2022-12-27T11:32:05.532Z,100830
2022-12-27T11:33:03.628Z,100830
2022-12-27T11:34:06.710Z,100840
2022-12-27T11:35:00.278Z,100840
2022-12-27T11:36:00.317Z,100840
2022-12-27T11:37:05.472Z,100840
2022-12-27T11:38:00.268Z,100840
2022-12-27T11:39:00.836Z,100840
2022-12-27T11:40:20.107Z,100840
2022-12-27T11:41:14.439Z,100840
2022-12-27T11:42:03.499Z,100850
2022-12-27T11:43:05.045Z,100850
2022-12-27T11:44:18.452Z,100850
2022-12-27T11:45:17.720Z,100840
2022-12-27T11:46:04.663Z,100840
2022-12-27T11:47:10.278Z,100850
2022-12-27T11:48:13.448Z,100850
2022-12-27T11:49:03.527Z,100850
2022-12-27T11:50:20.137Z,100850
2022-12-27T11:51:20.134Z,100850
2022-12-27T11:52:20.176Z,100850
2022-12-27T11:53:20.185Z,100860
2022-12-27T11:54:13.306Z,100850
2022-12-27T11:55:16.989Z,100860
2022-12-27T11:56:17.294Z,100860
2022-12-27T11:57:11.335Z,100850
2022-12-27T11:58:15.931Z,100850
2022-12-27T11:59:19.876Z,100850
2022-12-27T12:00:14.761Z,100860
2022-12-27T12:01:20.156Z,100850
2022-12-27T12:02:20.180Z,100860
2022-12-27T12:03:19.837Z,100860
2022-12-27T12:04:20.166Z,100860
2022-12-27T12:05:17.559Z,100860
2022-12-27T12:06:20.132Z,100850
2022-12-27T12:07:20.181Z,100840
2022-12-27T12:08:10.199Z,100840
2022-12-27T12:09:07.658Z,100850
2022-12-27T12:10:13.514Z,100840
2022-12-27T12:11:10.191Z,100850
2022-12-27T12:12:20.146Z,100850
2022-12-27T12:13:08.019Z,100850
2022-12-27T12:14:20.135Z,100850
2022-12-27T12:15:11.187Z,100840
2022-12-27T12:16:20.167Z,100840
2022-12-27T12:17:14.395Z,100840
2022-12-27T12:18:20.152Z,100840
2022-12-27T12:19:16.798Z,100840
2022-12-27T12:20:11.186Z,100840
2022-12-27T12:21:20.145Z,100840
2022-12-27T12:22:20.179Z,100840
2022-12-27T12:23:12.290Z,100840
2022-12-27T12:24:20.127Z,100840
2022-12-27T12:25:18.202Z,100840
2022-12-27T12:26:07.133Z,100840
2022-12-27T12:27:20.152Z,100850
2022-12-27T12:28:55.602Z,100840
2022-12-27T12:29:11.986Z,100840